createdAt,value
2023-02-23T00:02:04.357Z,23.40
2023-02-23T00:04:54.829Z,25.92
2023-02-23T00:07:45.412Z,25.50
2023-02-23T00:10:35.357Z,27.20
2023-02-23T00:13:25.424Z,27.95
2023-02-23T00:16:18.725Z,25.42
2023-02-23T00:19:08.972Z,26.60
2023-02-23T00:21:59.296Z,24.67
2023-02-23T00:24:50.182Z,25.42
2023-02-23T00:27:44.521Z,26.13
2023-02-23T00:33:25.064Z,23.17
2023-02-23T00:36:15.161Z,23.98
2023-02-23T00:39:17.307Z,24.52
2023-02-23T00:42:07.669Z,23.25
2023-02-23T00:44:57.856Z,25.88
2023-02-23T00:47:48.819Z,24.70
2023-02-23T00:50:39.058Z,25.98
2023-02-23T00:53:29.712Z,25.95
2023-02-23T00:56:19.495Z,24.90
2023-02-23T00:59:10.648Z,25.58
2023-02-23T01:02:00.940Z,25.83
2023-02-23T01:04:51.325Z,25.20
2023-02-23T01:07:41.426Z,25.83
2023-02-23T01:10:31.933Z,23.40
2023-02-23T01:13:23.117Z,23.55
2023-02-23T01:16:17.147Z,22.33
2023-02-23T01:19:07.175Z,22.83
2023-02-23T01:21:57.716Z,22.73
2023-02-23T01:24:47.617Z,23.58
2023-02-23T01:27:39.828Z,23.30
2023-02-23T01:30:32.716Z,24.95
2023-02-23T01:33:24.060Z,23.83
2023-02-23T01:36:13.900Z,23.95
2023-02-23T01:39:07.568Z,24.20
2023-02-23T01:44:47.926Z,23.27
2023-02-23T01:47:37.802Z,24.02
2023-02-23T01:50:33.235Z,25.42
2023-02-23T01:53:25.235Z,24.95
2023-02-23T01:56:20.282Z,24.75
2023-02-23T01:59:15.209Z,24.83
2023-02-23T02:02:05.681Z,27.02
2023-02-23T02:04:56.463Z,25.48
2023-02-23T02:07:58.726Z,25.88
2023-02-23T02:10:55.728Z,27.00
2023-02-23T02:13:46.393Z,26.83
2023-02-23T02:16:44.112Z,27.20
2023-02-23T02:19:44.021Z,25.92
2023-02-23T02:22:59.577Z,27.00
2023-02-23T02:26:05.135Z,25.02
2023-02-23T02:29:26.645Z,26.23
2023-02-23T02:32:43.841Z,24.88
2023-02-23T02:35:52.588Z,24.35
2023-02-23T02:39:07.837Z,24.45
2023-02-23T02:42:35.744Z,25.98
2023-02-23T02:45:44.493Z,25.48
2023-02-23T02:48:43.844Z,25.70
2023-02-23T02:51:44.680Z,25.85
2023-02-23T02:54:43.753Z,26.25
2023-02-23T02:57:35.236Z,25.63
2023-02-23T03:00:59.458Z,26.77
2023-02-23T03:04:08.854Z,25.95
2023-02-23T03:07:21.772Z,25.23
2023-02-23T03:10:55.435Z,25.60
2023-02-23T03:14:23.434Z,24.27
2023-02-23T03:17:51.593Z,23.95
2023-02-23T03:21:12.595Z,24.85
2023-02-23T03:25:19.238Z,25.10
2023-02-23T03:28:36.612Z,24.45
2023-02-23T03:32:05.778Z,24.92
2023-02-23T03:35:31.463Z,24.77
2023-02-23T03:39:01.872Z,24.05
2023-02-23T03:42:11.888Z,24.50
2023-02-23T03:45:26.771Z,23.10
2023-02-23T03:48:40.230Z,24.02
2023-02-23T03:51:53.039Z,24.38
2023-02-23T03:55:09.267Z,25.13
2023-02-23T03:58:21.288Z,24.77
2023-02-23T04:01:31.480Z,24.00
2023-02-23T04:04:42.149Z,25.80
2023-02-23T04:07:53.114Z,25.23
2023-02-23T04:11:09.502Z,25.88
2023-02-23T04:14:04.701Z,25.30
2023-02-23T04:16:56.564Z,24.95
2023-02-23T04:19:54.609Z,24.58
2023-02-23T04:22:44.814Z,25.25
2023-02-23T04:25:35.421Z,23.65
2023-02-23T04:28:27.301Z,25.30
2023-02-23T04:31:18.919Z,23.20
2023-02-23T04:34:09.644Z,25.30
2023-02-23T04:36:59.730Z,26.08
2023-02-23T04:39:50.318Z,27.23
2023-02-23T04:42:40.291Z,27.42
2023-02-23T04:45:30.712Z,26.95
2023-02-23T04:48:21.201Z,26.02
2023-02-23T04:51:11.130Z,26.75
2023-02-23T04:54:01.375Z,27.10
2023-02-23T04:56:51.691Z,26.50
2023-02-23T04:59:42.417Z,27.50
2023-02-23T05:02:32.393Z,27.42
2023-02-23T05:05:22.577Z,26.55
2023-02-23T05:08:12.599Z,26.40
2023-02-23T05:11:02.464Z,27.30
2023-02-23T05:13:52.341Z,27.05
2023-02-23T05:16:42.191Z,26.13
2023-02-23T05:19:32.212Z,26.90
2023-02-23T05:22:22.708Z,27.70
2023-02-23T05:25:13.053Z,27.35
2023-02-23T05:28:03.713Z,26.98
2023-02-23T05:30:54.233Z,26.63
2023-02-23T05:33:45.744Z,25.52
2023-02-23T05:36:36.741Z,26.17
2023-02-23T05:39:26.715Z,27.13
2023-02-23T05:42:21.245Z,26.05
2023-02-23T05:45:12.165Z,27.58
2023-02-23T05:48:02.347Z,26.85
2023-02-23T05:50:52.671Z,28.10
2023-02-23T05:53:43.470Z,27.48
2023-02-23T05:56:34.528Z,27.52
2023-02-23T05:59:24.538Z,27.90
2023-02-23T06:02:14.595Z,28.25
2023-02-23T06:05:06.025Z,27.65
2023-02-23T06:07:57.020Z,26.08
2023-02-23T06:10:47.801Z,27.42
2023-02-23T06:13:38.117Z,25.98
2023-02-23T06:16:28.229Z,27.45
2023-02-23T06:19:18.207Z,27.25
2023-02-23T06:22:08.377Z,27.92
2023-02-23T06:24:58.627Z,28.30
2023-02-23T06:27:48.713Z,27.25
2023-02-23T06:30:39.296Z,26.73
2023-02-23T06:33:29.524Z,26.50
2023-02-23T06:36:20.224Z,25.05
2023-02-23T06:39:11.843Z,25.73
2023-02-23T06:42:01.968Z,24.65
2023-02-23T06:44:51.926Z,25.70
2023-02-23T06:47:42.555Z,25.65
2023-02-23T06:50:33.560Z,27.33
2023-02-23T06:53:23.970Z,26.60
2023-02-23T06:56:13.983Z,27.10
2023-02-23T06:59:04.121Z,26.10
2023-02-23T07:01:54.632Z,26.00
2023-02-23T07:04:45.214Z,27.13
2023-02-23T07:07:35.435Z,27.02
2023-02-23T07:10:25.581Z,27.40
2023-02-23T07:13:16.453Z,26.00
2023-02-23T07:16:07.621Z,26.40
2023-02-23T07:18:57.746Z,26.02
2023-02-23T07:21:47.658Z,27.90
2023-02-23T07:24:38.816Z,27.27
2023-02-23T07:27:29.126Z,27.00
2023-02-23T07:30:20.412Z,26.50
2023-02-23T07:33:10.686Z,26.25
2023-02-23T07:36:00.659Z,28.15
2023-02-23T07:38:51.107Z,28.02
2023-02-23T07:41:41.389Z,28.80
2023-02-23T07:44:40.967Z,27.60
2023-02-23T07:47:31.207Z,28.95
2023-02-23T07:50:21.561Z,30.30
2023-02-23T07:53:12.625Z,29.48
2023-02-23T07:56:04.074Z,29.98
2023-02-23T07:58:55.382Z,30.13
2023-02-23T08:01:45.124Z,31.33
2023-02-23T08:04:35.155Z,33.35
2023-02-23T08:07:28.525Z,35.60
2023-02-23T08:10:18.663Z,34.95
2023-02-23T08:13:08.829Z,33.78
2023-02-23T08:15:59.750Z,32.38
2023-02-23T08:18:49.768Z,32.05
2023-02-23T08:21:39.799Z,31.70
2023-02-23T08:24:30.956Z,29.55
2023-02-23T08:27:21.177Z,30.55
2023-02-23T08:30:14.098Z,30.33
2023-02-23T08:33:05.579Z,31.60
2023-02-23T08:35:59.483Z,30.58
2023-02-23T08:38:49.689Z,30.58
2023-02-23T08:41:40.599Z,30.10
2023-02-23T08:44:30.582Z,31.20
2023-02-23T08:47:24.273Z,29.95
2023-02-23T08:50:14.495Z,30.77
2023-02-23T08:53:05.371Z,30.00
2023-02-23T08:56:01.134Z,28.27
2023-02-23T08:58:52.345Z,30.10
2023-02-23T09:01:43.352Z,30.30
2023-02-23T09:04:37.397Z,29.17
2023-02-23T09:07:27.886Z,29.65
2023-02-23T09:10:20.338Z,27.88
2023-02-23T09:13:11.901Z,28.65
2023-02-23T09:16:03.927Z,28.38
2023-02-23T09:18:54.447Z,26.90
2023-02-23T09:21:44.761Z,25.08
2023-02-23T09:24:35.048Z,26.42
2023-02-23T09:27:25.579Z,25.65
2023-02-23T09:30:20.502Z,25.75
2023-02-23T09:33:11.370Z,25.85
2023-02-23T09:36:06.178Z,24.58
2023-02-23T09:38:57.798Z,24.42
2023-02-23T09:42:08.469Z,25.63
2023-02-23T09:45:04.851Z,26.02
2023-02-23T09:48:04.025Z,24.95
2023-02-23T09:50:57.019Z,25.73
2023-02-23T09:53:54.388Z,25.83
2023-02-23T09:56:47.695Z,24.35
2023-02-23T09:59:39.720Z,23.48
2023-02-23T10:02:37.899Z,22.95
2023-02-23T10:05:32.889Z,22.48
2023-02-23T10:08:41.028Z,21.67
2023-02-23T10:11:41.441Z,20.52
2023-02-23T10:15:01.689Z,19.55
2023-02-23T10:18:10.428Z,21.17
2023-02-23T10:21:19.050Z,16.02
2023-02-23T10:25:00.267Z,17.70
2023-02-23T10:27:52.192Z,19.60
2023-02-23T10:30:45.277Z,18.02
2023-02-23T10:33:42.223Z,17.92
2023-02-23T10:36:37.473Z,16.95
2023-02-23T10:39:29.917Z,16.67
2023-02-23T10:42:28.953Z,14.90
2023-02-23T10:45:25.886Z,14.18
2023-02-23T10:48:20.121Z,13.70
2023-02-23T10:51:20.115Z,13.07
2023-02-23T10:54:43.141Z,12.95
2023-02-23T10:57:39.939Z,12.82
2023-02-23T11:00:32.988Z,11.95
2023-02-23T11:03:32.466Z,11.57
2023-02-23T11:06:33.221Z,11.32
2023-02-23T11:09:45.614Z,13.68
2023-02-23T11:12:41.938Z,13.32
2023-02-23T11:15:49.820Z,13.68
2023-02-23T11:18:54.727Z,12.75
2023-02-23T11:21:51.472Z,13.93
2023-02-23T11:24:41.714Z,13.77
2023-02-23T11:27:32.478Z,12.05
2023-02-23T11:30:29.363Z,12.68
2023-02-23T11:33:27.117Z,8.05
2023-02-23T11:36:27.094Z,9.70
2023-02-23T11:39:17.164Z,8.98
2023-02-23T11:42:19.223Z,7.38
2023-02-23T11:45:19.177Z,7.32
2023-02-23T11:48:20.776Z,7.07
2023-02-23T11:51:12.686Z,8.13
2023-02-23T11:54:05.699Z,7.70
2023-02-23T11:56:57.990Z,7.80
2023-02-23T11:59:48.506Z,8.05
2023-02-23T12:02:55.487Z,8.60
2023-02-23T12:05:52.779Z,7.82
2023-02-23T12:08:53.168Z,8.27
2023-02-23T12:11:49.039Z,7.60
2023-02-23T12:14:51.968Z,7.45
2023-02-23T12:17:52.563Z,7.53
2023-02-23T12:20:47.120Z,7.63
2023-02-23T12:23:40.079Z,7.38
2023-02-23T12:26:36.096Z,7.37
2023-02-23T12:29:48.472Z,7.22
2023-02-23T12:32:55.027Z,6.75
2023-02-23T12:35:55.389Z,6.25
2023-02-23T12:38:56.144Z,6.45
2023-02-23T12:42:01.399Z,6.18
2023-02-23T12:44:59.238Z,5.80
2023-02-23T12:48:26.814Z,5.45
2023-02-23T12:51:25.355Z,4.97
2023-02-23T12:54:17.305Z,4.38
2023-02-23T12:57:26.666Z,4.55
2023-02-23T13:00:34.726Z,3.35
2023-02-23T13:03:43.950Z,3.65
2023-02-23T13:06:44.122Z,4.68
2023-02-23T13:09:48.522Z,4.32
2023-02-23T13:12:53.862Z,3.42
2023-02-23T13:15:50.844Z,3.40
2023-02-23T13:19:13.346Z,3.45
2023-02-23T13:22:30.665Z,3.50
2023-02-23T13:25:44.113Z,3.17
2023-02-23T13:28:39.975Z,3.13
2023-02-23T13:31:34.392Z,3.65
2023-02-23T13:34:28.352Z,4.03
2023-02-23T13:37:22.634Z,4.40
2023-02-23T13:40:31.251Z,4.78
2023-02-23T13:43:30.365Z,5.57
2023-02-23T13:46:28.589Z,5.07
2023-02-23T13:49:20.342Z,5.47
2023-02-23T13:52:38.116Z,5.60
2023-02-23T13:55:32.610Z,4.80
2023-02-23T13:58:30.119Z,5.50
2023-02-23T14:01:23.495Z,5.88
2023-02-23T14:04:22.131Z,5.57
2023-02-23T14:07:26.348Z,4.55
2023-02-23T14:10:21.892Z,4.35
2023-02-23T14:13:17.878Z,4.70
2023-02-23T14:16:17.423Z,5.20
2023-02-23T14:19:11.540Z,4.70
2023-02-23T14:22:19.280Z,6.25
2023-02-23T14:25:46.770Z,5.05
2023-02-23T14:28:41.333Z,6.00
2023-02-23T14:31:32.382Z,5.85
2023-02-23T14:34:23.092Z,5.93
2023-02-23T14:37:18.849Z,5.18
2023-02-23T14:40:22.441Z,5.28
2023-02-23T14:43:42.861Z,5.03
2023-02-23T14:46:35.095Z,5.13
2023-02-23T14:49:28.392Z,5.25
2023-02-23T14:52:24.768Z,5.30
2023-02-23T14:55:29.255Z,5.30
2023-02-23T14:58:28.847Z,5.72
2023-02-23T15:01:37.057Z,5.97
2023-02-23T15:04:29.984Z,6.15
2023-02-23T15:07:30.989Z,6.13
2023-02-23T15:10:34.491Z,5.15
2023-02-23T15:13:29.968Z,5.67
2023-02-23T15:16:36.347Z,5.07
2023-02-23T15:19:34.480Z,5.85
2023-02-23T15:22:35.452Z,5.68
2023-02-23T15:25:33.768Z,7.45
2023-02-23T15:28:29.404Z,6.05
2023-02-23T15:31:20.004Z,6.80
2023-02-23T15:34:11.170Z,5.75
2023-02-23T15:37:04.787Z,6.35
2023-02-23T15:40:05.989Z,7.00
2023-02-23T15:43:01.175Z,6.93
2023-02-23T15:45:54.259Z,7.13
2023-02-23T15:48:48.219Z,6.77
2023-02-23T15:51:49.502Z,6.82
2023-02-23T15:54:50.862Z,7.03
2023-02-23T15:57:55.035Z,7.22
2023-02-23T16:00:51.439Z,7.80
2023-02-23T16:03:54.620Z,8.00
2023-02-23T16:07:06.191Z,7.70
2023-02-23T16:10:18.329Z,7.22
2023-02-23T16:13:12.942Z,7.28
2023-02-23T16:16:08.546Z,7.60
2023-02-23T16:19:01.754Z,7.03
2023-02-23T16:21:55.756Z,8.00
2023-02-23T16:24:53.478Z,8.18
2023-02-23T16:27:46.087Z,7.55
2023-02-23T16:30:43.459Z,7.57
2023-02-23T16:33:36.497Z,7.63
2023-02-23T16:36:41.068Z,9.50
2023-02-23T16:39:34.207Z,7.15
2023-02-23T16:42:30.256Z,6.57
2023-02-23T16:45:20.488Z,7.50
2023-02-23T16:48:13.876Z,7.22
2023-02-23T16:51:03.792Z,7.07
2023-02-23T16:53:57.980Z,8.13
2023-02-23T16:56:55.414Z,7.40
2023-02-23T16:59:50.608Z,8.82
2023-02-23T17:02:41.655Z,8.15
2023-02-23T17:05:42.936Z,8.70
2023-02-23T17:08:41.253Z,9.38
2023-02-23T17:11:33.570Z,9.63
2023-02-23T17:14:53.381Z,9.00
2023-02-23T17:17:43.462Z,8.73
2023-02-23T17:20:34.058Z,8.90
2023-02-23T17:23:26.939Z,9.50
2023-02-23T17:26:20.877Z,9.60
2023-02-23T17:29:11.088Z,11.60
2023-02-23T17:32:02.418Z,10.63
2023-02-23T17:34:53.403Z,10.55
2023-02-23T17:37:44.656Z,10.13
2023-02-23T17:40:36.535Z,10.25
2023-02-23T17:43:26.969Z,10.80
2023-02-23T17:46:17.500Z,12.15
2023-02-23T17:49:07.854Z,10.65
2023-02-23T17:51:58.236Z,11.00
2023-02-23T17:54:48.455Z,10.52
2023-02-23T17:57:38.543Z,10.80
2023-02-23T18:00:28.795Z,10.10
2023-02-23T18:03:19.053Z,10.35
2023-02-23T18:06:12.061Z,10.35
2023-02-23T18:09:05.825Z,9.82
2023-02-23T18:11:56.419Z,11.10
2023-02-23T18:14:46.723Z,11.68
2023-02-23T18:17:37.159Z,12.18
2023-02-23T18:20:29.125Z,12.10
2023-02-23T18:23:20.353Z,14.27
2023-02-23T18:26:16.437Z,13.40
2023-02-23T18:29:07.312Z,12.77
2023-02-23T18:31:58.502Z,13.15
2023-02-23T18:34:49.423Z,14.95
2023-02-23T18:37:39.632Z,14.57
2023-02-23T18:43:41.525Z,13.95
2023-02-23T18:46:32.162Z,14.18
2023-02-23T18:49:24.099Z,13.85
2023-02-23T18:52:14.472Z,13.57
2023-02-23T18:55:05.255Z,12.05
2023-02-23T18:57:55.519Z,13.40
2023-02-23T19:00:46.822Z,12.90
2023-02-23T19:03:37.088Z,13.50
2023-02-23T19:06:28.987Z,13.90
2023-02-23T19:09:19.656Z,12.90
2023-02-23T19:12:11.400Z,14.63
2023-02-23T19:15:02.761Z,14.30
2023-02-23T19:17:54.336Z,14.27
2023-02-23T19:20:44.531Z,13.68
2023-02-23T19:23:34.544Z,12.35
2023-02-23T19:26:26.054Z,13.77
2023-02-23T19:29:16.980Z,13.45
2023-02-23T19:32:22.375Z,13.98
2023-02-23T19:35:20.645Z,14.00
2023-02-23T19:38:48.792Z,15.05
2023-02-23T19:41:40.108Z,13.70
2023-02-23T19:45:25.909Z,14.82
2023-02-23T19:48:16.737Z,14.05
2023-02-23T19:51:11.240Z,13.98
2023-02-23T19:54:02.129Z,14.13
2023-02-23T19:56:53.058Z,14.20
2023-02-23T19:59:43.190Z,14.25
2023-02-23T20:02:33.057Z,14.75
2023-02-23T20:05:43.488Z,16.02
2023-02-23T20:08:42.272Z,12.85
2023-02-23T20:11:56.704Z,14.93
2023-02-23T20:14:50.259Z,15.13
2023-02-23T20:17:41.563Z,15.77
2023-02-23T20:20:32.496Z,14.65
2023-02-23T20:23:22.651Z,15.60
2023-02-23T20:26:21.905Z,14.75
2023-02-23T20:29:18.030Z,14.93
2023-02-23T20:32:09.743Z,15.98
2023-02-23T20:35:00.673Z,15.75
2023-02-23T20:37:50.582Z,15.65
2023-02-23T20:40:40.922Z,16.02
2023-02-23T20:43:32.114Z,14.98
2023-02-23T20:46:22.381Z,16.10
2023-02-23T20:49:13.513Z,15.30
2023-02-23T20:52:04.096Z,15.02
2023-02-23T20:54:54.601Z,14.05
2023-02-23T20:57:45.073Z,15.43
2023-02-23T21:00:35.474Z,14.98
2023-02-23T21:03:26.344Z,15.18
2023-02-23T21:06:19.408Z,15.48
2023-02-23T21:09:17.842Z,17.33
2023-02-23T21:12:11.592Z,17.30
2023-02-23T21:15:04.409Z,17.08
2023-02-23T21:17:55.478Z,18.05
2023-02-23T21:20:45.908Z,18.25
2023-02-23T21:23:43.237Z,16.38
2023-02-23T21:26:33.462Z,19.20
2023-02-23T21:29:23.979Z,18.30
2023-02-23T21:32:14.491Z,17.45
2023-02-23T21:35:04.834Z,16.70
2023-02-23T21:37:55.160Z,15.10
2023-02-23T21:40:45.348Z,15.88
2023-02-23T21:43:36.580Z,15.63
2023-02-23T21:46:27.789Z,15.90
2023-02-23T21:49:19.458Z,15.30
2023-02-23T21:52:10.332Z,17.60
2023-02-23T21:55:03.874Z,16.50
2023-02-23T21:57:56.338Z,15.27
2023-02-23T22:00:47.711Z,15.55
2023-02-23T22:03:37.815Z,17.10
2023-02-23T22:06:34.222Z,16.17
2023-02-23T22:09:24.525Z,18.05
2023-02-23T22:12:14.488Z,18.92
2023-02-23T22:15:10.275Z,17.65
2023-02-23T22:18:00.578Z,19.15
2023-02-23T22:21:00.196Z,21.33
2023-02-23T22:23:50.418Z,23.65
2023-02-23T22:26:53.918Z,23.35
2023-02-23T22:29:43.982Z,21.95
2023-02-23T22:32:34.163Z,20.38
2023-02-23T22:35:24.565Z,20.45
2023-02-23T22:38:15.100Z,20.42
2023-02-23T22:41:14.521Z,20.75
2023-02-23T22:44:05.115Z,21.50
2023-02-23T22:46:55.231Z,22.33
2023-02-23T22:49:47.548Z,20.35
2023-02-23T22:52:37.791Z,21.27
2023-02-23T22:55:29.356Z,21.42
2023-02-23T22:58:23.742Z,19.85
2023-02-23T23:01:13.654Z,19.67
2023-02-23T23:04:10.196Z,20.17
2023-02-23T23:07:00.436Z,20.50
2023-02-23T23:09:51.632Z,19.23
2023-02-23T23:12:41.928Z,18.40
2023-02-23T23:15:32.495Z,19.60
2023-02-23T23:18:24.369Z,18.98
2023-02-23T23:21:21.685Z,19.02
2023-02-23T23:24:17.627Z,18.67
2023-02-23T23:27:08.231Z,19.27
2023-02-23T23:29:58.609Z,18.75
2023-02-23T23:32:48.405Z,18.95
2023-02-23T23:35:38.590Z,18.48
2023-02-23T23:38:28.837Z,21.15
2023-02-23T23:41:24.550Z,19.42
2023-02-23T23:44:20.841Z,20.67
2023-02-23T23:47:11.243Z,20.65
2023-02-23T23:50:02.749Z,20.50
2023-02-23T23:52:54.315Z,21.60
2023-02-23T23:55:45.269Z,20.80
2023-02-23T23:58:35.370Z,22.27
